sensor_id;sensor_type;location;lat;lon;timestamp;temperature;humidity
17859;DHT22;35426;30.698;104.050;2023-03-12T00:01:34;14.90;99.90
17859;DHT22;35426;30.698;104.050;2023-03-12T00:04:10;15.00;99.90
17859;DHT22;35426;30.698;104.050;2023-03-12T00:06:48;15.10;99.90
17859;DHT22;35426;30.698;104.050;2023-03-12T00:09:25;15.10;99.90
17859;DHT22;35426;30.698;104.050;2023-03-12T00:12:02;15.10;99.90
17859;DHT22;35426;30.698;104.050;2023-03-12T00:14:39;15.20;99.90
17859;DHT22;35426;30.698;104.050;2023-03-12T00:17:15;15.10;99.90
17859;DHT22;35426;30.698;104.050;2023-03-12T00:19:53;15.10;99.90
17859;DHT22;35426;30.698;104.050;2023-03-12T00:22:31;15.30;99.90
17859;DHT22;35426;30.698;104.050;2023-03-12T00:25:10;15.40;99.90
17859;DHT22;35426;30.698;104.050;2023-03-12T00:27:46;15.50;99.90
17859;DHT22;35426;30.698;104.050;2023-03-12T00:30:22;15.60;99.90
17859;DHT22;35426;30.698;104.050;2023-03-12T00:32:59;15.50;99.90
17859;DHT22;35426;30.698;104.050;2023-03-12T00:35:38;15.50;99.90
17859;DHT22;35426;30.698;104.050;2023-03-12T00:38:16;15.60;99.90
17859;DHT22;35426;30.698;104.050;2023-03-12T00:40:53;15.50;99.90
17859;DHT22;35426;30.698;104.050;2023-03-12T00:43:32;15.30;99.90
17859;DHT22;35426;30.698;104.050;2023-03-12T00:46:08;15.20;99.90
17859;DHT22;35426;30.698;104.050;2023-03-12T00:48:46;15.40;99.90
17859;DHT22;35426;30.698;104.050;2023-03-12T00:51:21;15.30;99.90
17859;DHT22;35426;30.698;104.050;2023-03-12T00:53:59;15.30;99.90
17859;DHT22;35426;30.698;104.050;2023-03-12T00:56:35;15.30;99.90
17859;DHT22;35426;30.698;104.050;2023-03-12T00:59:11;15.60;99.90
17859;DHT22;35426;30.698;104.050;2023-03-12T01:01:52;15.50;99.90
17859;DHT22;35426;30.698;104.050;2023-03-12T01:04:40;15.40;99.90
17859;DHT22;35426;30.698;104.050;2023-03-12T01:07:25;15.50;99.90
17859;DHT22;35426;30.698;104.050;2023-03-12T01:10:09;15.50;99.90
17859;DHT22;35426;30.698;104.050;2023-03-12T01:13:11;15.60;99.90
17859;DHT22;35426;30.698;104.050;2023-03-12T01:15:48;16.00;99.90
17859;DHT22;35426;30.698;104.050;2023-03-12T01:18:32;16.10;99.90
17859;DHT22;35426;30.698;104.050;2023-03-12T01:21:16;16.00;99.90
17859;DHT22;35426;30.698;104.050;2023-03-12T01:23:58;15.80;99.90
17859;DHT22;35426;30.698;104.050;2023-03-12T01:26:44;16.00;99.90
17859;DHT22;35426;30.698;104.050;2023-03-12T01:29:41;15.90;99.90
17859;DHT22;35426;30.698;104.050;2023-03-12T01:32:29;16.10;99.90
17859;DHT22;35426;30.698;104.050;2023-03-12T01:35:22;15.90;99.90
17859;DHT22;35426;30.698;104.050;2023-03-12T01:38:04;16.10;99.90
17859;DHT22;35426;30.698;104.050;2023-03-12T01:40:50;16.20;99.90
17859;DHT22;35426;30.698;104.050;2023-03-12T01:43:42;15.70;99.90
17859;DHT22;35426;30.698;104.050;2023-03-12T01:46:41;15.60;99.90
17859;DHT22;35426;30.698;104.050;2023-03-12T01:49:27;15.60;99.90
17859;DHT22;35426;30.698;104.050;2023-03-12T01:52:16;15.80;99.90
17859;DHT22;35426;30.698;104.050;2023-03-12T01:55:03;15.80;99.90
17859;DHT22;35426;30.698;104.050;2023-03-12T01:57:57;15.70;99.90
17859;DHT22;35426;30.698;104.050;2023-03-12T02:00:35;15.70;99.90
17859;DHT22;35426;30.698;104.050;2023-03-12T02:03:18;15.50;99.90
17859;DHT22;35426;30.698;104.050;2023-03-12T02:06:03;15.50;99.90
17859;DHT22;35426;30.698;104.050;2023-03-12T02:08:43;15.40;99.90
17859;DHT22;35426;30.698;104.050;2023-03-12T02:11:22;15.60;99.90
17859;DHT22;35426;30.698;104.050;2023-03-12T02:13:59;15.70;99.90
17859;DHT22;35426;30.698;104.050;2023-03-12T02:16:44;15.80;99.90
17859;DHT22;35426;30.698;104.050;2023-03-12T02:19:26;15.80;99.90
17859;DHT22;35426;30.698;104.050;2023-03-12T02:22:06;15.80;99.90
17859;DHT22;35426;30.698;104.050;2023-03-12T02:24:50;15.80;99.90
17859;DHT22;35426;30.698;104.050;2023-03-12T02:27:33;15.70;99.90
17859;DHT22;35426;30.698;104.050;2023-03-12T02:30:19;15.80;99.90
17859;DHT22;35426;30.698;104.050;2023-03-12T02:32:55;15.70;99.90
17859;DHT22;35426;30.698;104.050;2023-03-12T02:35:33;15.50;99.90
17859;DHT22;35426;30.698;104.050;2023-03-12T02:38:32;15.50;99.90
17859;DHT22;35426;30.698;104.050;2023-03-12T02:41:13;15.40;99.90
17859;DHT22;35426;30.698;104.050;2023-03-12T02:43:59;15.40;99.90
17859;DHT22;35426;30.698;104.050;2023-03-12T02:46:43;15.50;99.90
17859;DHT22;35426;30.698;104.050;2023-03-12T02:49:29;15.10;99.90
17859;DHT22;35426;30.698;104.050;2023-03-12T02:52:07;15.20;99.90
17859;DHT22;35426;30.698;104.050;2023-03-12T02:54:49;15.20;99.90
17859;DHT22;35426;30.698;104.050;2023-03-12T02:57:40;15.50;99.90
17859;DHT22;35426;30.698;104.050;2023-03-12T03:00:21;15.60;99.90
17859;DHT22;35426;30.698;104.050;2023-03-12T03:03:01;15.50;99.90
17859;DHT22;35426;30.698;104.050;2023-03-12T03:05:38;15.40;99.90
17859;DHT22;35426;30.698;104.050;2023-03-12T03:08:17;15.70;99.90
17859;DHT22;35426;30.698;104.050;2023-03-12T03:11:08;15.70;99.90
17859;DHT22;35426;30.698;104.050;2023-03-12T03:13:53;15.60;99.90
17859;DHT22;35426;30.698;104.050;2023-03-12T03:16:33;15.90;99.90
17859;DHT22;35426;30.698;104.050;2023-03-12T03:19:11;15.80;99.90
17859;DHT22;35426;30.698;104.050;2023-03-12T03:21:48;15.60;99.90
17859;DHT22;35426;30.698;104.050;2023-03-12T03:27:39;15.90;99.90
17859;DHT22;35426;30.698;104.050;2023-03-12T03:30:21;16.00;99.90
17859;DHT22;35426;30.698;104.050;2023-03-12T03:33:08;16.20;99.90
17859;DHT22;35426;30.698;104.050;2023-03-12T03:36:10;16.30;99.90
17859;DHT22;35426;30.698;104.050;2023-03-12T03:39:04;16.60;99.90
17859;DHT22;35426;30.698;104.050;2023-03-12T03:41:45;16.60;99.90
17859;DHT22;35426;30.698;104.050;2023-03-12T03:44:27;16.40;99.90
17859;DHT22;35426;30.698;104.050;2023-03-12T03:47:11;16.70;99.90
17859;DHT22;35426;30.698;104.050;2023-03-12T03:49:59;16.60;99.90
17859;DHT22;35426;30.698;104.050;2023-03-12T03:52:42;17.00;99.90
17859;DHT22;35426;30.698;104.050;2023-03-12T03:55:28;17.10;99.90
17859;DHT22;35426;30.698;104.050;2023-03-12T03:58:13;17.20;99.90
17859;DHT22;35426;30.698;104.050;2023-03-12T04:00:59;16.90;99.90
17859;DHT22;35426;30.698;104.050;2023-03-12T04:03:58;17.10;99.90
17859;DHT22;35426;30.698;104.050;2023-03-12T04:07:00;17.00;99.90
17859;DHT22;35426;30.698;104.050;2023-03-12T04:09:54;16.60;99.90
17859;DHT22;35426;30.698;104.050;2023-03-12T04:12:51;16.80;99.90
17859;DHT22;35426;30.698;104.050;2023-03-12T04:15:48;16.50;99.90
17859;DHT22;35426;30.698;104.050;2023-03-12T04:18:32;16.10;99.90
17859;DHT22;35426;30.698;104.050;2023-03-12T04:21:18;16.50;99.90
17859;DHT22;35426;30.698;104.050;2023-03-12T04:24:28;16.60;99.90
17859;DHT22;35426;30.698;104.050;2023-03-12T04:27:09;16.80;99.90
17859;DHT22;35426;30.698;104.050;2023-03-12T04:30:00;16.60;99.90
17859;DHT22;35426;30.698;104.050;2023-03-12T04:32:45;17.00;99.90
17859;DHT22;35426;30.698;104.050;2023-03-12T04:38:24;17.40;99.90
17859;DHT22;35426;30.698;104.050;2023-03-12T04:41:31;17.50;99.90
17859;DHT22;35426;30.698;104.050;2023-03-12T04:44:35;17.30;99.90
17859;DHT22;35426;30.698;104.050;2023-03-12T04:47:31;17.20;99.90
17859;DHT22;35426;30.698;104.050;2023-03-12T04:50:20;17.20;99.90
17859;DHT22;35426;30.698;104.050;2023-03-12T04:52:58;17.40;99.90
17859;DHT22;35426;30.698;104.050;2023-03-12T04:55:43;17.70;99.90
17859;DHT22;35426;30.698;104.050;2023-03-12T04:58:24;17.70;99.90
17859;DHT22;35426;30.698;104.050;2023-03-12T05:01:01;17.70;99.90
17859;DHT22;35426;30.698;104.050;2023-03-12T05:03:41;17.60;99.90
17859;DHT22;35426;30.698;104.050;2023-03-12T05:06:19;17.70;99.90
17859;DHT22;35426;30.698;104.050;2023-03-12T05:09:06;18.00;99.90
17859;DHT22;35426;30.698;104.050;2023-03-12T05:11:49;18.20;99.90
17859;DHT22;35426;30.698;104.050;2023-03-12T05:14:28;17.70;99.90
17859;DHT22;35426;30.698;104.050;2023-03-12T05:17:04;17.70;99.90
17859;DHT22;35426;30.698;104.050;2023-03-12T05:19:46;18.00;99.90
17859;DHT22;35426;30.698;104.050;2023-03-12T05:22:25;18.60;99.90
17859;DHT22;35426;30.698;104.050;2023-03-12T05:25:08;18.40;99.90
17859;DHT22;35426;30.698;104.050;2023-03-12T05:27:45;18.10;99.90
17859;DHT22;35426;30.698;104.050;2023-03-12T05:30:31;18.00;99.90
17859;DHT22;35426;30.698;104.050;2023-03-12T05:33:08;18.30;99.90
17859;DHT22;35426;30.698;104.050;2023-03-12T05:35:45;17.90;99.90
17859;DHT22;35426;30.698;104.050;2023-03-12T05:38:25;16.90;99.90
17859;DHT22;35426;30.698;104.050;2023-03-12T05:41:06;17.00;99.90
17859;DHT22;35426;30.698;104.050;2023-03-12T05:43:46;17.20;99.90
17859;DHT22;35426;30.698;104.050;2023-03-12T05:46:39;17.60;99.90
17859;DHT22;35426;30.698;104.050;2023-03-12T05:49:17;17.70;99.90
17859;DHT22;35426;30.698;104.050;2023-03-12T05:51:57;17.20;99.90
17859;DHT22;35426;30.698;104.050;2023-03-12T05:54:37;17.10;99.90
17859;DHT22;35426;30.698;104.050;2023-03-12T05:57:14;17.40;99.90
17859;DHT22;35426;30.698;104.050;2023-03-12T05:59:52;17.30;99.90
17859;DHT22;35426;30.698;104.050;2023-03-12T06:02:47;17.70;99.90
17859;DHT22;35426;30.698;104.050;2023-03-12T06:05:23;17.70;99.90
17859;DHT22;35426;30.698;104.050;2023-03-12T06:08:00;17.50;99.90
17859;DHT22;35426;30.698;104.050;2023-03-12T06:10:39;17.40;99.90
17859;DHT22;35426;30.698;104.050;2023-03-12T06:13:16;17.70;99.90
17859;DHT22;35426;30.698;104.050;2023-03-12T06:15:55;17.80;99.90
17859;DHT22;35426;30.698;104.050;2023-03-12T06:18:40;17.70;99.90
17859;DHT22;35426;30.698;104.050;2023-03-12T06:21:24;17.70;99.90
17859;DHT22;35426;30.698;104.050;2023-03-12T06:24:05;17.60;99.90
17859;DHT22;35426;30.698;104.050;2023-03-12T06:26:57;17.70;99.90
17859;DHT22;35426;30.698;104.050;2023-03-12T06:29:38;17.90;99.90
17859;DHT22;35426;30.698;104.050;2023-03-12T06:32:22;18.20;99.90
17859;DHT22;35426;30.698;104.050;2023-03-12T06:35:01;17.80;99.90
17859;DHT22;35426;30.698;104.050;2023-03-12T06:37:43;17.40;99.90
17859;DHT22;35426;30.698;104.050;2023-03-12T06:40:21;17.30;99.90
17859;DHT22;35426;30.698;104.050;2023-03-12T06:43:02;17.80;99.90
17859;DHT22;35426;30.698;104.050;2023-03-12T06:45:43;18.00;99.90
17859;DHT22;35426;30.698;104.050;2023-03-12T06:48:25;17.60;99.90
17859;DHT22;35426;30.698;104.050;2023-03-12T06:51:05;17.20;99.90
17859;DHT22;35426;30.698;104.050;2023-03-12T06:53:46;17.50;99.90
17859;DHT22;35426;30.698;104.050;2023-03-12T06:56:28;17.70;99.90
17859;DHT22;35426;30.698;104.050;2023-03-12T06:59:06;17.80;99.90
17859;DHT22;35426;30.698;104.050;2023-03-12T07:01:51;17.60;99.90
17859;DHT22;35426;30.698;104.050;2023-03-12T07:04:40;17.70;99.90
17859;DHT22;35426;30.698;104.050;2023-03-12T07:07:18;17.50;99.90
17859;DHT22;35426;30.698;104.050;2023-03-12T07:10:00;17.50;99.90
17859;DHT22;35426;30.698;104.050;2023-03-12T07:12:38;17.70;99.90
17859;DHT22;35426;30.698;104.050;2023-03-12T07:15:17;17.90;99.90
17859;DHT22;35426;30.698;104.050;2023-03-12T07:18:00;17.60;99.90
17859;DHT22;35426;30.698;104.050;2023-03-12T07:20:38;17.20;99.90
17859;DHT22;35426;30.698;104.050;2023-03-12T07:23:18;17.20;99.90
17859;DHT22;35426;30.698;104.050;2023-03-12T07:25:56;17.40;99.90
17859;DHT22;35426;30.698;104.050;2023-03-12T07:28:35;17.80;99.90
17859;DHT22;35426;30.698;104.050;2023-03-12T07:31:12;17.50;99.90
17859;DHT22;35426;30.698;104.050;2023-03-12T07:33:48;17.60;99.90
17859;DHT22;35426;30.698;104.050;2023-03-12T07:36:28;17.20;99.90
17859;DHT22;35426;30.698;104.050;2023-03-12T07:39:10;17.60;99.90
17859;DHT22;35426;30.698;104.050;2023-03-12T07:41:48;17.80;99.90
17859;DHT22;35426;30.698;104.050;2023-03-12T07:44:24;18.20;99.90
17859;DHT22;35426;30.698;104.050;2023-03-12T07:47:01;17.80;99.90
17859;DHT22;35426;30.698;104.050;2023-03-12T07:49:56;18.00;99.90
17859;DHT22;35426;30.698;104.050;2023-03-12T07:52:39;18.10;99.90
17859;DHT22;35426;30.698;104.050;2023-03-12T07:55:20;17.70;99.90
17859;DHT22;35426;30.698;104.050;2023-03-12T07:58:02;18.00;99.90
17859;DHT22;35426;30.698;104.050;2023-03-12T08:00:41;18.00;99.90
17859;DHT22;35426;30.698;104.050;2023-03-12T08:03:18;18.20;99.90
17859;DHT22;35426;30.698;104.050;2023-03-12T08:06:02;18.20;99.90
17859;DHT22;35426;30.698;104.050;2023-03-12T08:08:39;18.20;99.90
17859;DHT22;35426;30.698;104.050;2023-03-12T08:11:20;17.70;99.90
17859;DHT22;35426;30.698;104.050;2023-03-12T08:13:58;17.50;99.90
17859;DHT22;35426;30.698;104.050;2023-03-12T08:16:40;17.20;99.90
17859;DHT22;35426;30.698;104.050;2023-03-12T08:19:21;17.10;99.90
17859;DHT22;35426;30.698;104.050;2023-03-12T08:22:00;17.30;99.90
17859;DHT22;35426;30.698;104.050;2023-03-12T08:24:39;17.90;99.90
17859;DHT22;35426;30.698;104.050;2023-03-12T08:27:25;17.60;99.90
17859;DHT22;35426;30.698;104.050;2023-03-12T08:30:08;17.70;99.90
17859;DHT22;35426;30.698;104.050;2023-03-12T08:32:44;17.60;99.90
17859;DHT22;35426;30.698;104.050;2023-03-12T08:35:22;17.40;99.90
17859;DHT22;35426;30.698;104.050;2023-03-12T08:38:07;17.20;99.90
17859;DHT22;35426;30.698;104.050;2023-03-12T08:40:53;17.30;99.90
17859;DHT22;35426;30.698;104.050;2023-03-12T08:43:33;17.20;99.90
17859;DHT22;35426;30.698;104.050;2023-03-12T08:46:10;17.40;99.90
17859;DHT22;35426;30.698;104.050;2023-03-12T08:48:49;17.40;99.90
17859;DHT22;35426;30.698;104.050;2023-03-12T08:51:27;17.30;99.90
17859;DHT22;35426;30.698;104.050;2023-03-12T08:54:06;17.10;99.90
17859;DHT22;35426;30.698;104.050;2023-03-12T08:56:48;16.80;99.90
17859;DHT22;35426;30.698;104.050;2023-03-12T08:59:37;16.50;99.90
17859;DHT22;35426;30.698;104.050;2023-03-12T09:02:14;16.70;99.90
17859;DHT22;35426;30.698;104.050;2023-03-12T09:04:51;16.90;99.90
17859;DHT22;35426;30.698;104.050;2023-03-12T09:07:30;17.10;99.90
17859;DHT22;35426;30.698;104.050;2023-03-12T09:10:11;16.80;99.90
17859;DHT22;35426;30.698;104.050;2023-03-12T09:12:51;16.50;99.90
17859;DHT22;35426;30.698;104.050;2023-03-12T09:15:37;16.40;99.90
17859;DHT22;35426;30.698;104.050;2023-03-12T09:18:15;16.70;99.90
17859;DHT22;35426;30.698;104.050;2023-03-12T09:20:59;16.80;99.90
17859;DHT22;35426;30.698;104.050;2023-03-12T09:23:36;17.00;99.90
17859;DHT22;35426;30.698;104.050;2023-03-12T09:26:18;17.00;99.90
17859;DHT22;35426;30.698;104.050;2023-03-12T09:28:57;16.90;99.90
17859;DHT22;35426;30.698;104.050;2023-03-12T09:31:37;16.60;99.90
17859;DHT22;35426;30.698;104.050;2023-03-12T09:34:14;16.40;99.90
17859;DHT22;35426;30.698;104.050;2023-03-12T09:36:54;16.20;99.90
17859;DHT22;35426;30.698;104.050;2023-03-12T09:39:30;16.10;99.90
17859;DHT22;35426;30.698;104.050;2023-03-12T09:42:24;15.90;99.90
17859;DHT22;35426;30.698;104.050;2023-03-12T09:45:20;15.40;99.90
17859;DHT22;35426;30.698;104.050;2023-03-12T09:48:15;15.30;99.90
17859;DHT22;35426;30.698;104.050;2023-03-12T09:50:58;15.50;99.90
17859;DHT22;35426;30.698;104.050;2023-03-12T09:53:39;15.40;99.90
17859;DHT22;35426;30.698;104.050;2023-03-12T09:56:20;15.60;99.90
17859;DHT22;35426;30.698;104.050;2023-03-12T09:58:57;15.60;99.90
17859;DHT22;35426;30.698;104.050;2023-03-12T10:01:46;15.60;99.90
17859;DHT22;35426;30.698;104.050;2023-03-12T10:04:44;15.70;99.90
17859;DHT22;35426;30.698;104.050;2023-03-12T10:07:33;15.90;99.90
17859;DHT22;35426;30.698;104.050;2023-03-12T10:10:33;15.70;99.90
17859;DHT22;35426;30.698;104.050;2023-03-12T10:13:38;15.70;99.90
17859;DHT22;35426;30.698;104.050;2023-03-12T10:16:39;15.70;99.90
17859;DHT22;35426;30.698;104.050;2023-03-12T10:22:38;15.20;99.90
17859;DHT22;35426;30.698;104.050;2023-03-12T10:25:30;15.00;99.90
17859;DHT22;35426;30.698;104.050;2023-03-12T10:28:15;14.70;99.90
17859;DHT22;35426;30.698;104.050;2023-03-12T10:30:57;14.90;99.90
17859;DHT22;35426;30.698;104.050;2023-03-12T10:33:42;15.10;99.90
17859;DHT22;35426;30.698;104.050;2023-03-12T10:36:33;14.90;99.90
17859;DHT22;35426;30.698;104.050;2023-03-12T10:39:17;14.50;99.90
17859;DHT22;35426;30.698;104.050;2023-03-12T10:41:54;14.80;99.90
17859;DHT22;35426;30.698;104.050;2023-03-12T10:44:34;14.80;99.90
17859;DHT22;35426;30.698;104.050;2023-03-12T10:47:29;14.80;99.90
17859;DHT22;35426;30.698;104.050;2023-03-12T10:50:17;14.70;99.90
17859;DHT22;35426;30.698;104.050;2023-03-12T10:56:00;14.60;99.90
17859;DHT22;35426;30.698;104.050;2023-03-12T10:58:40;14.20;99.90
17859;DHT22;35426;30.698;104.050;2023-03-12T11:01:27;14.20;99.90
17859;DHT22;35426;30.698;104.050;2023-03-12T11:04:16;14.30;99.90
17859;DHT22;35426;30.698;104.050;2023-03-12T11:07:18;14.30;99.90
17859;DHT22;35426;30.698;104.050;2023-03-12T11:10:17;14.20;99.90
17859;DHT22;35426;30.698;104.050;2023-03-12T11:13:25;14.10;99.90
17859;DHT22;35426;30.698;104.050;2023-03-12T11:16:23;14.00;99.90
17859;DHT22;35426;30.698;104.050;2023-03-12T11:19:04;13.90;99.90
17859;DHT22;35426;30.698;104.050;2023-03-12T11:21:57;13.80;99.90
17859;DHT22;35426;30.698;104.050;2023-03-12T11:24:36;13.90;99.90
17859;DHT22;35426;30.698;104.050;2023-03-12T11:27:41;13.90;99.90
17859;DHT22;35426;30.698;104.050;2023-03-12T11:30:31;13.80;99.90
17859;DHT22;35426;30.698;104.050;2023-03-12T11:33:17;13.80;99.90
17859;DHT22;35426;30.698;104.050;2023-03-12T11:36:04;13.90;99.90
17859;DHT22;35426;30.698;104.050;2023-03-12T11:39:05;13.90;99.90
17859;DHT22;35426;30.698;104.050;2023-03-12T11:41:59;13.90;99.90
17859;DHT22;35426;30.698;104.050;2023-03-12T11:44:43;13.80;99.90
17859;DHT22;35426;30.698;104.050;2023-03-12T11:47:40;13.70;99.90
17859;DHT22;35426;30.698;104.050;2023-03-12T11:50:33;13.70;99.90
17859;DHT22;35426;30.698;104.050;2023-03-12T11:53:28;13.40;99.90
17859;DHT22;35426;30.698;104.050;2023-03-12T11:56:26;13.50;99.90
17859;DHT22;35426;30.698;104.050;2023-03-12T11:59:17;13.40;99.90
17859;DHT22;35426;30.698;104.050;2023-03-12T12:02:12;13.20;99.90
17859;DHT22;35426;30.698;104.050;2023-03-12T12:05:10;13.30;99.90
17859;DHT22;35426;30.698;104.050;2023-03-12T12:08:15;13.20;99.90
17859;DHT22;35426;30.698;104.050;2023-03-12T12:11:06;13.20;99.90
17859;DHT22;35426;30.698;104.050;2023-03-12T12:13:56;13.30;99.90
17859;DHT22;35426;30.698;104.050;2023-03-12T12:17:03;13.30;99.90
17859;DHT22;35426;30.698;104.050;2023-03-12T12:19:56;13.20;99.90
17859;DHT22;35426;30.698;104.050;2023-03-12T12:22:51;13.10;99.90
17859;DHT22;35426;30.698;104.050;2023-03-12T12:25:56;13.00;99.90
17859;DHT22;35426;30.698;104.050;2023-03-12T12:29:16;12.90;99.90
17859;DHT22;35426;30.698;104.050;2023-03-12T12:31:57;13.10;99.90
17859;DHT22;35426;30.698;104.050;2023-03-12T12:34:59;12.90;99.90
17859;DHT22;35426;30.698;104.050;2023-03-12T12:37:50;12.90;99.90
17859;DHT22;35426;30.698;104.050;2023-03-12T12:40:36;12.90;99.90
17859;DHT22;35426;30.698;104.050;2023-03-12T12:43:24;13.00;99.90
17859;DHT22;35426;30.698;104.050;2023-03-12T12:46:11;12.90;99.90
17859;DHT22;35426;30.698;104.050;2023-03-12T12:48:53;12.90;99.90
17859;DHT22;35426;30.698;104.050;2023-03-12T12:51:51;12.80;99.90
17859;DHT22;35426;30.698;104.050;2023-03-12T12:54:37;12.90;99.90
17859;DHT22;35426;30.698;104.050;2023-03-12T12:57:26;12.60;99.90
17859;DHT22;35426;30.698;104.050;2023-03-12T13:00:28;12.50;99.90
17859;DHT22;35426;30.698;104.050;2023-03-12T13:03:20;12.40;99.90
17859;DHT22;35426;30.698;104.050;2023-03-12T13:06:03;12.40;99.90
17859;DHT22;35426;30.698;104.050;2023-03-12T13:09:14;12.30;99.90
17859;DHT22;35426;30.698;104.050;2023-03-12T13:11:57;12.60;99.90
17859;DHT22;35426;30.698;104.050;2023-03-12T13:14:38;12.60;99.90
17859;DHT22;35426;30.698;104.050;2023-03-12T13:17:26;12.60;99.90
17859;DHT22;35426;30.698;104.050;2023-03-12T13:20:15;12.50;99.90
17859;DHT22;35426;30.698;104.050;2023-03-12T13:23:18;12.60;99.90
17859;DHT22;35426;30.698;104.050;2023-03-12T13:26:07;12.50;99.90
17859;DHT22;35426;30.698;104.050;2023-03-12T13:29:10;12.50;99.90
17859;DHT22;35426;30.698;104.050;2023-03-12T13:32:09;12.40;99.90
17859;DHT22;35426;30.698;104.050;2023-03-12T13:35:33;12.30;99.90
17859;DHT22;35426;30.698;104.050;2023-03-12T13:38:32;12.50;99.90
17859;DHT22;35426;30.698;104.050;2023-03-12T13:41:31;12.50;99.90
17859;DHT22;35426;30.698;104.050;2023-03-12T13:44:36;12.40;99.90
17859;DHT22;35426;30.698;104.050;2023-03-12T13:47:25;12.50;99.90
17859;DHT22;35426;30.698;104.050;2023-03-12T13:50:16;12.40;99.90
17859;DHT22;35426;30.698;104.050;2023-03-12T13:53:05;12.60;99.90
17859;DHT22;35426;30.698;104.050;2023-03-12T13:56:00;12.40;99.90
17859;DHT22;35426;30.698;104.050;2023-03-12T13:58:53;12.40;99.90
17859;DHT22;35426;30.698;104.050;2023-03-12T14:01:39;12.50;99.90
17859;DHT22;35426;30.698;104.050;2023-03-12T14:04:29;12.60;99.90
17859;DHT22;35426;30.698;104.050;2023-03-12T14:07:30;12.40;99.90
17859;DHT22;35426;30.698;104.050;2023-03-12T14:10:29;12.30;99.90
17859;DHT22;35426;30.698;104.050;2023-03-12T14:13:37;12.20;99.90
17859;DHT22;35426;30.698;104.050;2023-03-12T14:16:28;12.20;99.90
17859;DHT22;35426;30.698;104.050;2023-03-12T14:19:15;12.20;99.90
17859;DHT22;35426;30.698;104.050;2023-03-12T14:21:56;12.30;99.90
17859;DHT22;35426;30.698;104.050;2023-03-12T14:24:40;12.30;99.90
17859;DHT22;35426;30.698;104.050;2023-03-12T14:27:20;12.20;99.90
17859;DHT22;35426;30.698;104.050;2023-03-12T14:30:15;12.10;99.90
17859;DHT22;35426;30.698;104.050;2023-03-12T14:33:45;12.10;99.90
17859;DHT22;35426;30.698;104.050;2023-03-12T14:36:29;12.20;99.90
17859;DHT22;35426;30.698;104.050;2023-03-12T14:39:35;12.30;99.90
17859;DHT22;35426;30.698;104.050;2023-03-12T14:42:34;12.10;99.90
17859;DHT22;35426;30.698;104.050;2023-03-12T14:45:17;12.10;99.90
17859;DHT22;35426;30.698;104.050;2023-03-12T14:48:02;12.00;99.90
17859;DHT22;35426;30.698;104.050;2023-03-12T14:50:46;12.10;99.90
17859;DHT22;35426;30.698;104.050;2023-03-12T14:53:27;12.10;99.90
17859;DHT22;35426;30.698;104.050;2023-03-12T14:56:20;12.20;99.90
17859;DHT22;35426;30.698;104.050;2023-03-12T14:59:18;12.20;99.90
17859;DHT22;35426;30.698;104.050;2023-03-12T15:02:09;12.30;99.90
17859;DHT22;35426;30.698;104.050;2023-03-12T15:04:50;12.20;99.90
17859;DHT22;35426;30.698;104.050;2023-03-12T15:07:33;12.00;99.90
17859;DHT22;35426;30.698;104.050;2023-03-12T15:10:22;12.00;99.90
17859;DHT22;35426;30.698;104.050;2023-03-12T15:13:01;12.20;99.90
17859;DHT22;35426;30.698;104.050;2023-03-12T15:15:45;12.20;99.90
17859;DHT22;35426;30.698;104.050;2023-03-12T15:18:31;12.00;99.90
17859;DHT22;35426;30.698;104.050;2023-03-12T15:21:12;11.90;99.90
17859;DHT22;35426;30.698;104.050;2023-03-12T15:23:58;11.90;99.90
17859;DHT22;35426;30.698;104.050;2023-03-12T15:26:40;12.00;99.90
17859;DHT22;35426;30.698;104.050;2023-03-12T15:29:26;12.10;99.90
17859;DHT22;35426;30.698;104.050;2023-03-12T15:32:15;12.20;99.90
17859;DHT22;35426;30.698;104.050;2023-03-12T15:34:57;12.30;99.90
17859;DHT22;35426;30.698;104.050;2023-03-12T15:37:35;12.30;99.90
17859;DHT22;35426;30.698;104.050;2023-03-12T15:40:22;12.40;99.90
17859;DHT22;35426;30.698;104.050;2023-03-12T15:43:00;12.40;99.90
17859;DHT22;35426;30.698;104.050;2023-03-12T15:45:42;12.20;99.90
17859;DHT22;35426;30.698;104.050;2023-03-12T15:48:25;12.20;99.90
17859;DHT22;35426;30.698;104.050;2023-03-12T15:51:13;12.00;99.90
17859;DHT22;35426;30.698;104.050;2023-03-12T15:54:01;11.90;99.90
17859;DHT22;35426;30.698;104.050;2023-03-12T15:56:45;12.10;99.90
17859;DHT22;35426;30.698;104.050;2023-03-12T15:59:32;11.80;99.90
17859;DHT22;35426;30.698;104.050;2023-03-12T16:02:12;11.50;99.90
17859;DHT22;35426;30.698;104.050;2023-03-12T16:04:59;11.70;99.90
17859;DHT22;35426;30.698;104.050;2023-03-12T16:07:41;12.00;99.90
17859;DHT22;35426;30.698;104.050;2023-03-12T16:10:21;12.00;99.90
17859;DHT22;35426;30.698;104.050;2023-03-12T16:13:09;12.20;99.90
17859;DHT22;35426;30.698;104.050;2023-03-12T16:15:49;12.10;99.90
17859;DHT22;35426;30.698;104.050;2023-03-12T16:18:31;12.00;99.90
17859;DHT22;35426;30.698;104.050;2023-03-12T16:21:12;12.10;99.90
17859;DHT22;35426;30.698;104.050;2023-03-12T16:23:52;12.00;99.90
17859;DHT22;35426;30.698;104.050;2023-03-12T16:26:33;12.00;99.90
17859;DHT22;35426;30.698;104.050;2023-03-12T16:29:24;12.00;99.90
17859;DHT22;35426;30.698;104.050;2023-03-12T16:32:11;12.00;99.90
17859;DHT22;35426;30.698;104.050;2023-03-12T16:34:52;12.00;99.90
17859;DHT22;35426;30.698;104.050;2023-03-12T16:37:30;12.10;99.90
17859;DHT22;35426;30.698;104.050;2023-03-12T16:40:14;12.20;99.90
17859;DHT22;35426;30.698;104.050;2023-03-12T16:43:06;12.10;99.90
17859;DHT22;35426;30.698;104.050;2023-03-12T16:45:48;11.80;99.90
17859;DHT22;35426;30.698;104.050;2023-03-12T16:48:27;11.60;99.90
17859;DHT22;35426;30.698;104.050;2023-03-12T16:51:10;11.70;99.90
17859;DHT22;35426;30.698;104.050;2023-03-12T16:53:51;11.80;99.90
17859;DHT22;35426;30.698;104.050;2023-03-12T16:56:45;11.70;99.90
17859;DHT22;35426;30.698;104.050;2023-03-12T16:59:27;11.60;99.90
17859;DHT22;35426;30.698;104.050;2023-03-12T17:02:21;11.60;99.90
17859;DHT22;35426;30.698;104.050;2023-03-12T17:05:06;11.60;99.90
17859;DHT22;35426;30.698;104.050;2023-03-12T17:07:47;11.80;99.90